createdAt,value
2023-09-08T00:00:31.865Z,16.81
2023-09-08T00:05:35.595Z,16.79
2023-09-08T00:10:40.058Z,16.75
2023-09-08T00:15:45.181Z,16.71
2023-09-08T00:20:48.854Z,16.68
2023-09-08T00:25:53.167Z,16.61
2023-09-08T00:30:58.757Z,16.54
2023-09-08T00:36:02.522Z,16.43
2023-09-08T00:41:07.278Z,16.37
2023-09-08T00:46:13.402Z,16.31
2023-09-08T00:51:17.328Z,16.23
2023-09-08T00:56:20.759Z,16.13
2023-09-08T01:01:27.519Z,16.11
2023-09-08T01:06:31.202Z,16.08
2023-09-08T01:11:34.620Z,16.04
2023-09-08T01:16:42.108Z,16.04
2023-09-08T01:22:13.977Z,16.11
2023-09-08T01:27:21.103Z,16.10
2023-09-08T01:32:24.678Z,16.09
2023-09-08T01:37:28.403Z,16.10
2023-09-08T01:42:32.932Z,16.06
2023-09-08T01:47:36.548Z,16.07
2023-09-08T01:52:40.270Z,15.99
2023-09-08T01:57:45.211Z,15.92
2023-09-08T02:02:48.396Z,15.99
2023-09-08T02:07:51.602Z,16.07
2023-09-08T02:12:56.413Z,16.09
2023-09-08T02:17:59.588Z,16.06
2023-09-08T02:23:07.811Z,16.02
2023-09-08T02:28:12.773Z,15.96
2023-09-08T02:33:16.101Z,15.94
2023-09-08T02:38:19.320Z,16.00
2023-09-08T02:43:23.809Z,16.07
2023-09-08T02:48:27.150Z,16.07
2023-09-08T02:53:30.301Z,16.01
2023-09-08T02:58:35.939Z,15.95
2023-09-08T03:03:39.447Z,15.83
2023-09-08T03:08:43.034Z,15.71
2023-09-08T03:13:47.524Z,15.60
2023-09-08T03:18:50.695Z,15.57
2023-09-08T03:23:53.896Z,15.50
2023-09-08T03:28:58.757Z,15.45
2023-09-08T03:34:02.048Z,15.37
2023-09-08T03:39:05.890Z,15.31
2023-09-08T03:44:10.350Z,15.29
2023-09-08T03:49:13.926Z,15.25
2023-09-08T03:54:17.064Z,15.16
2023-09-08T03:59:21.688Z,15.10
2023-09-08T04:04:24.960Z,15.05
2023-09-08T04:09:29.105Z,15.02
2023-09-08T04:14:35.032Z,14.97
2023-09-08T04:19:38.417Z,14.92
2023-09-08T04:24:41.753Z,14.87
2023-09-08T04:29:46.457Z,14.91
2023-09-08T04:34:50.427Z,15.00
2023-09-08T04:39:53.628Z,15.18
2023-09-08T04:44:58.254Z,15.30
2023-09-08T04:50:01.676Z,15.39
2023-09-08T04:55:05.491Z,15.36
2023-09-08T05:00:12.873Z,15.29
2023-09-08T05:05:16.379Z,15.22
2023-09-08T05:10:19.544Z,15.19
2023-09-08T05:15:26.215Z,15.11
2023-09-08T05:20:29.673Z,15.00
2023-09-08T05:25:33.098Z,14.93
2023-09-08T05:30:37.555Z,14.86
2023-09-08T05:35:40.725Z,14.85
2023-09-08T05:40:44.720Z,14.86
2023-09-08T05:45:49.432Z,14.93
2023-09-08T05:50:52.743Z,15.09
2023-09-08T05:55:56.031Z,15.24
2023-09-08T06:01:00.853Z,15.36
2023-09-08T06:06:04.226Z,15.51
2023-09-08T06:11:07.609Z,15.69
2023-09-08T06:16:12.365Z,15.85
2023-09-08T06:21:16.058Z,16.11
2023-09-08T06:26:19.427Z,16.44
2023-09-08T06:31:24.702Z,16.70
2023-09-08T06:36:28.095Z,16.95
2023-09-08T06:41:31.671Z,17.15
2023-09-08T06:46:36.807Z,17.38
2023-09-08T06:51:40.256Z,17.61
2023-09-08T06:56:44.070Z,17.93
2023-09-08T07:01:50.028Z,18.37
2023-09-08T07:06:55.873Z,19.18
2023-09-08T07:11:59.651Z,20.44
2023-09-08T07:17:05.132Z,21.72
2023-09-08T07:22:08.478Z,22.65
2023-09-08T07:27:13.878Z,23.71
2023-09-08T07:32:18.826Z,24.68
2023-09-08T07:37:22.804Z,25.25
2023-09-08T07:42:26.796Z,25.85
2023-09-08T07:47:31.939Z,26.49
2023-09-08T07:52:35.672Z,26.30
2023-09-08T07:57:38.979Z,26.59
2023-09-08T08:02:45.391Z,26.45
2023-09-08T08:07:49.848Z,26.86
2023-09-08T08:12:53.356Z,27.29
2023-09-08T08:17:58.083Z,27.31
2023-09-08T08:23:01.530Z,27.39
2023-09-08T08:28:05.081Z,27.84
2023-09-08T08:33:09.997Z,27.48
2023-09-08T08:38:13.460Z,28.34
2023-09-08T08:43:16.965Z,27.85
2023-09-08T08:48:25.996Z,28.03
2023-09-08T08:53:30.251Z,28.11
2023-09-08T08:58:34.400Z,28.92
2023-09-08T09:03:40.590Z,28.67
2023-09-08T09:08:45.347Z,29.06
2023-09-08T09:13:48.588Z,28.60
2023-09-08T09:18:58.322Z,29.25
2023-09-08T09:24:01.814Z,29.36
2023-09-08T09:29:14.986Z,29.11
2023-09-08T09:34:19.632Z,29.45
2023-09-08T09:39:24.713Z,29.48
2023-09-08T09:44:27.979Z,28.94
2023-09-08T09:49:33.915Z,29.46
2023-09-08T09:54:37.204Z,29.56
2023-09-08T09:59:41.320Z,29.31
2023-09-08T10:04:45.966Z,29.40
2023-09-08T10:09:49.147Z,29.95
2023-09-08T10:14:55.198Z,29.18
2023-09-08T10:20:09.521Z,29.55
2023-09-08T10:25:16.031Z,30.04
2023-09-08T10:30:21.834Z,29.66
2023-09-08T10:35:26.694Z,30.90
2023-09-08T10:40:34.575Z,30.09
2023-09-08T10:45:38.105Z,30.32
2023-09-08T10:50:44.121Z,29.99
2023-09-08T11:01:02.666Z,30.65
2023-09-08T11:06:07.893Z,30.78
2023-09-08T11:11:13.381Z,30.88
2023-09-08T11:16:17.249Z,31.64
2023-09-08T11:21:22.791Z,31.34
2023-09-08T11:26:26.653Z,31.00
2023-09-08T11:31:30.017Z,30.88
2023-09-08T11:36:34.700Z,31.45
2023-09-08T11:41:38.152Z,31.46
2023-09-08T11:46:42.506Z,31.69
2023-09-08T11:51:48.241Z,31.44
2023-09-08T11:56:51.899Z,31.52
2023-09-08T12:01:55.482Z,31.74
2023-09-08T12:07:00.562Z,31.83
2023-09-08T12:12:05.680Z,31.87
2023-09-08T12:17:10.087Z,32.14
2023-09-08T12:22:19.479Z,31.88
2023-09-08T12:27:23.494Z,31.90
2023-09-08T12:32:28.161Z,32.09
2023-09-08T12:37:36.293Z,31.70
2023-09-08T12:42:44.013Z,31.67
2023-09-08T12:47:53.616Z,32.01
2023-09-08T12:52:59.478Z,31.96
2023-09-08T12:58:02.934Z,31.59
2023-09-08T13:03:06.747Z,31.86
2023-09-08T13:08:12.544Z,32.50
2023-09-08T13:13:16.238Z,31.90
2023-09-08T13:18:19.632Z,31.76
2023-09-08T13:23:24.956Z,32.03
2023-09-08T13:28:29.117Z,31.88
2023-09-08T13:33:32.705Z,31.67
2023-09-08T13:38:38.585Z,31.71
2023-09-08T13:43:44.232Z,31.56
2023-09-08T13:48:50.693Z,31.61
2023-09-08T13:53:59.170Z,31.47
2023-09-08T13:59:04.139Z,31.64
2023-09-08T14:04:10.555Z,31.26
2023-09-08T14:14:23.076Z,31.56
2023-09-08T14:19:26.703Z,31.63
2023-09-08T14:24:31.823Z,31.44
2023-09-08T14:29:36.970Z,31.32
2023-09-08T14:34:40.356Z,31.09
2023-09-08T14:39:45.573Z,30.46
2023-09-08T14:44:50.313Z,30.22
2023-09-08T14:49:53.693Z,30.39
2023-09-08T14:54:58.789Z,30.04
2023-09-08T15:00:02.197Z,29.90
2023-09-08T15:05:06.422Z,29.72
2023-09-08T15:10:12.084Z,29.52
2023-09-08T15:15:15.696Z,29.14
2023-09-08T15:20:19.288Z,29.20
2023-09-08T15:25:24.329Z,28.92
2023-09-08T15:30:27.899Z,28.78
2023-09-08T15:35:31.220Z,28.62
2023-09-08T15:40:36.480Z,28.43
2023-09-08T15:45:40.210Z,28.00
2023-09-08T15:50:43.551Z,27.99
2023-09-08T15:55:48.342Z,27.76
2023-09-08T16:00:51.725Z,27.35
2023-09-08T16:05:55.776Z,27.39
2023-09-08T16:11:02.281Z,27.07
2023-09-08T16:16:06.067Z,26.89
2023-09-08T16:21:09.722Z,26.84
2023-09-08T16:26:14.668Z,26.55
2023-09-08T16:31:18.675Z,26.10
2023-09-08T16:36:22.137Z,25.70
2023-09-08T16:41:27.071Z,25.19
2023-09-08T16:46:30.656Z,24.71
2023-09-08T16:51:34.183Z,24.36
2023-09-08T16:56:39.079Z,24.12
2023-09-08T17:01:42.478Z,23.83
2023-09-08T17:06:45.957Z,23.55
2023-09-08T17:11:50.799Z,23.30
2023-09-08T17:16:54.663Z,23.08
2023-09-08T17:21:59.355Z,22.78
2023-09-08T17:27:04.966Z,22.48
2023-09-08T17:32:09.936Z,22.16
2023-09-08T17:37:13.427Z,21.90
2023-09-08T17:42:18.758Z,21.68
2023-09-08T17:47:22.539Z,21.49
2023-09-08T17:52:26.113Z,21.35
2023-09-08T17:57:31.011Z,21.17
2023-09-08T18:02:34.654Z,21.02
2023-09-08T18:07:39.244Z,20.89
2023-09-08T18:12:44.616Z,20.72
2023-09-08T18:17:48.585Z,20.54
2023-09-08T18:22:55.478Z,20.45
2023-09-08T18:28:00.525Z,20.28
2023-09-08T18:33:03.832Z,20.13
2023-09-08T18:38:07.677Z,19.98
2023-09-08T18:43:12.370Z,19.84
2023-09-08T18:48:15.783Z,19.74
2023-09-08T18:53:19.128Z,19.63
2023-09-08T18:58:24.276Z,19.51
2023-09-08T19:03:27.701Z,19.43
2023-09-08T19:08:32.865Z,19.39
2023-09-08T19:13:38.301Z,19.34
2023-09-08T19:18:41.959Z,19.38
2023-09-08T19:23:46.447Z,19.43
2023-09-08T19:28:51.266Z,19.43
2023-09-08T19:33:54.689Z,19.30
2023-09-08T19:38:58.861Z,19.21
2023-09-08T19:44:04.780Z,19.15
2023-09-08T19:49:08.577Z,19.08
2023-09-08T19:54:12.284Z,19.08
2023-09-08T19:59:19.592Z,19.14
2023-09-08T20:04:23.084Z,19.19
2023-09-08T20:09:26.746Z,19.21
2023-09-08T20:14:31.808Z,19.25
2023-09-08T20:19:35.086Z,19.32
2023-09-08T20:24:40.632Z,19.37
2023-09-08T20:29:45.188Z,19.33
2023-09-08T20:34:48.345Z,19.26
2023-09-08T20:39:51.835Z,19.14
2023-09-08T20:44:56.404Z,19.06
2023-09-08T20:49:59.635Z,18.96
2023-09-08T20:55:03.576Z,18.90
2023-09-08T21:00:11.353Z,18.99
2023-09-08T21:05:14.636Z,19.11
2023-09-08T21:10:18.011Z,19.11
2023-09-08T21:15:22.756Z,19.02
2023-09-08T21:20:25.944Z,18.88
2023-09-08T21:25:29.586Z,18.67
2023-09-08T21:30:34.282Z,18.50
2023-09-08T21:35:37.469Z,18.25
2023-09-08T21:40:41.473Z,18.02
2023-09-08T21:45:51.862Z,17.91
2023-09-08T21:50:55.459Z,17.81
2023-09-08T21:55:58.828Z,17.70
2023-09-08T22:01:03.804Z,17.55
2023-09-08T22:06:07.332Z,17.44
2023-09-08T22:11:10.618Z,17.34
2023-09-08T22:16:16.242Z,17.24
2023-09-08T22:21:19.788Z,17.19
2023-09-08T22:26:23.712Z,17.18
2023-09-08T22:31:28.459Z,17.11
2023-09-08T22:36:31.762Z,17.10
2023-09-08T22:41:35.042Z,17.06
2023-09-08T22:46:39.636Z,17.00
2023-09-08T22:51:43.194Z,17.09
2023-09-08T22:56:46.449Z,17.11
2023-09-08T23:01:51.075Z,17.09
2023-09-08T23:06:54.317Z,17.05
2023-09-08T23:11:58.511Z,16.98
2023-09-08T23:17:03.104Z,16.98
2023-09-08T23:22:06.288Z,16.96
2023-09-08T23:27:09.511Z,16.90
2023-09-08T23:32:16.454Z,16.86
2023-09-08T23:37:19.789Z,16.82
2023-09-08T23:42:22.979Z,16.72
2023-09-08T23:47:28.010Z,16.62
2023-09-08T23:52:31.235Z,16.53
2023-09-08T23:57:35.055Z,16.40
